sensor_id;sensor_type;location;lat;lon;timestamp;pressure;altitude;pressure_sealevel;temperature;humidity
59055;BME280;44845;51.444;7.460;2023-08-31T00:01:49;98993.78;;;13.35;92.82
59055;BME280;44845;51.444;7.460;2023-08-31T00:04:14;98986.19;;;13.26;93.30
59055;BME280;44845;51.444;7.460;2023-08-31T00:06:40;98987.69;;;13.33;93.33
59055;BME280;44845;51.444;7.460;2023-08-31T00:09:06;98986.69;;;13.37;93.29
59055;BME280;44845;51.444;7.460;2023-08-31T00:11:35;98985.88;;;13.35;93.85
59055;BME280;44845;51.444;7.460;2023-08-31T00:14:00;98988.59;;;13.32;93.91
59055;BME280;44845;51.444;7.460;2023-08-31T00:16:25;98982.59;;;13.28;93.90
59055;BME280;44845;51.444;7.460;2023-08-31T00:18:52;98985.13;;;13.32;93.12
59055;BME280;44845;51.444;7.460;2023-08-31T00:21:17;98980.91;;;13.26;92.93
59055;BME280;44845;51.444;7.460;2023-08-31T00:23:42;98984.44;;;13.25;93.03
59055;BME280;44845;51.444;7.460;2023-08-31T00:26:08;98981.00;;;13.23;92.91
59055;BME280;44845;51.444;7.460;2023-08-31T00:28:34;98984.41;;;13.26;92.88
59055;BME280;44845;51.444;7.460;2023-08-31T00:31:02;98981.94;;;13.22;92.80
59055;BME280;44845;51.444;7.460;2023-08-31T00:33:31;98973.09;;;13.24;93.46
59055;BME280;44845;51.444;7.460;2023-08-31T00:35:59;98977.38;;;13.27;93.34
59055;BME280;44845;51.444;7.460;2023-08-31T00:38:27;98975.88;;;13.20;92.71
59055;BME280;44845;51.444;7.460;2023-08-31T00:40:52;98979.31;;;13.22;93.02
59055;BME280;44845;51.444;7.460;2023-08-31T00:43:19;98973.38;;;13.15;91.98
59055;BME280;44845;51.444;7.460;2023-08-31T00:45:46;98990.03;;;13.15;92.28
59055;BME280;44845;51.444;7.460;2023-08-31T00:48:15;98987.44;;;13.14;93.18
59055;BME280;44845;51.444;7.460;2023-08-31T00:50:42;98980.25;;;13.19;93.21
59055;BME280;44845;51.444;7.460;2023-08-31T00:53:08;98988.25;;;13.16;93.60
59055;BME280;44845;51.444;7.460;2023-08-31T00:55:33;98982.94;;;13.17;93.39
59055;BME280;44845;51.444;7.460;2023-08-31T00:57:59;98975.97;;;13.16;93.94
59055;BME280;44845;51.444;7.460;2023-08-31T01:00:30;98984.75;;;13.15;94.12
59055;BME280;44845;51.444;7.460;2023-08-31T01:03:22;98988.00;;;13.24;93.70
59055;BME280;44845;51.444;7.460;2023-08-31T01:06:04;98989.78;;;13.23;93.70
59055;BME280;44845;51.444;7.460;2023-08-31T01:08:55;98987.19;;;13.22;93.53
59055;BME280;44845;51.444;7.460;2023-08-31T01:14:18;98993.59;;;13.14;92.88
59055;BME280;44845;51.444;7.460;2023-08-31T01:16:47;98981.13;;;13.20;93.28
59055;BME280;44845;51.444;7.460;2023-08-31T01:22:09;98993.75;;;13.08;93.11
59055;BME280;44845;51.444;7.460;2023-08-31T01:24:36;98987.69;;;13.06;92.53
59055;BME280;44845;51.444;7.460;2023-08-31T01:27:03;98987.75;;;13.04;93.15
59055;BME280;44845;51.444;7.460;2023-08-31T01:29:29;98992.22;;;13.01;92.88
59055;BME280;44845;51.444;7.460;2023-08-31T01:31:55;98990.72;;;12.93;93.43
59055;BME280;44845;51.444;7.460;2023-08-31T01:34:20;98991.38;;;13.00;92.76
59055;BME280;44845;51.444;7.460;2023-08-31T01:36:50;98985.41;;;12.95;92.81
59055;BME280;44845;51.444;7.460;2023-08-31T01:39:33;98991.72;;;12.89;93.06
59055;BME280;44845;51.444;7.460;2023-08-31T01:42:04;98986.56;;;12.86;92.23
59055;BME280;44845;51.444;7.460;2023-08-31T01:44:35;98988.19;;;12.90;92.60
59055;BME280;44845;51.444;7.460;2023-08-31T01:47:06;98994.44;;;12.86;91.97
59055;BME280;44845;51.444;7.460;2023-08-31T01:49:50;98993.63;;;12.84;92.14
59055;BME280;44845;51.444;7.460;2023-08-31T01:52:16;98999.72;;;12.86;91.66
59055;BME280;44845;51.444;7.460;2023-08-31T01:54:41;99010.44;;;12.80;92.10
59055;BME280;44845;51.444;7.460;2023-08-31T01:57:06;98992.91;;;12.79;92.62
59055;BME280;44845;51.444;7.460;2023-08-31T01:59:33;98992.81;;;12.82;91.87
59055;BME280;44845;51.444;7.460;2023-08-31T02:01:59;98998.97;;;12.81;91.72
59055;BME280;44845;51.444;7.460;2023-08-31T02:04:26;98993.88;;;12.76;92.28
59055;BME280;44845;51.444;7.460;2023-08-31T02:06:52;98986.69;;;12.81;91.95
59055;BME280;44845;51.444;7.460;2023-08-31T02:09:17;98995.59;;;12.77;92.43
59055;BME280;44845;51.444;7.460;2023-08-31T02:11:42;98989.28;;;12.83;92.56
59055;BME280;44845;51.444;7.460;2023-08-31T02:14:08;98994.81;;;12.73;92.87
59055;BME280;44845;51.444;7.460;2023-08-31T02:16:34;98993.19;;;12.69;93.62
59055;BME280;44845;51.444;7.460;2023-08-31T02:18:59;98992.91;;;12.79;92.86
59055;BME280;44845;51.444;7.460;2023-08-31T02:21:25;98998.31;;;12.74;92.77
59055;BME280;44845;51.444;7.460;2023-08-31T02:23:50;99000.19;;;12.70;92.58
59055;BME280;44845;51.444;7.460;2023-08-31T02:26:15;99001.97;;;12.68;92.77
59055;BME280;44845;51.444;7.460;2023-08-31T02:28:41;99000.09;;;12.73;93.24
59055;BME280;44845;51.444;7.460;2023-08-31T02:31:06;99003.44;;;12.79;92.59
59055;BME280;44845;51.444;7.460;2023-08-31T02:33:31;98996.69;;;12.70;91.65
59055;BME280;44845;51.444;7.460;2023-08-31T02:35:58;99001.81;;;12.75;92.30
59055;BME280;44845;51.444;7.460;2023-08-31T02:38:23;99010.72;;;12.70;92.70
59055;BME280;44845;51.444;7.460;2023-08-31T02:40:49;99017.69;;;12.71;92.71
59055;BME280;44845;51.444;7.460;2023-08-31T02:43:14;99008.09;;;12.70;91.76
59055;BME280;44845;51.444;7.460;2023-08-31T02:45:40;99010.97;;;12.61;92.11
59055;BME280;44845;51.444;7.460;2023-08-31T02:48:09;99017.31;;;12.54;92.25
59055;BME280;44845;51.444;7.460;2023-08-31T02:50:35;99007.38;;;12.65;92.13
59055;BME280;44845;51.444;7.460;2023-08-31T02:53:00;99009.34;;;12.57;92.16
59055;BME280;44845;51.444;7.460;2023-08-31T02:55:26;99007.50;;;12.60;92.21
59055;BME280;44845;51.444;7.460;2023-08-31T02:57:51;99011.97;;;12.57;91.39
59055;BME280;44845;51.444;7.460;2023-08-31T03:00:17;99005.09;;;12.53;92.53
59055;BME280;44845;51.444;7.460;2023-08-31T03:02:49;99010.97;;;12.61;92.19
59055;BME280;44845;51.444;7.460;2023-08-31T03:05:17;99010.22;;;12.57;92.14
59055;BME280;44845;51.444;7.460;2023-08-31T03:07:43;99009.44;;;12.54;92.50
59055;BME280;44845;51.444;7.460;2023-08-31T03:10:08;99008.47;;;12.56;91.85
59055;BME280;44845;51.444;7.460;2023-08-31T03:12:34;99006.78;;;12.54;92.53
59055;BME280;44845;51.444;7.460;2023-08-31T03:14:59;99007.00;;;12.47;91.60
59055;BME280;44845;51.444;7.460;2023-08-31T03:17:24;99008.59;;;12.53;92.44
59055;BME280;44845;51.444;7.460;2023-08-31T03:19:50;99005.91;;;12.55;91.43
59055;BME280;44845;51.444;7.460;2023-08-31T03:22:15;99010.44;;;12.49;92.19
59055;BME280;44845;51.444;7.460;2023-08-31T03:24:40;99016.63;;;12.48;92.06
59055;BME280;44845;51.444;7.460;2023-08-31T03:27:06;99013.88;;;12.52;92.40
59055;BME280;44845;51.444;7.460;2023-08-31T03:29:31;99013.94;;;12.50;91.76
59055;BME280;44845;51.444;7.460;2023-08-31T03:31:57;99018.25;;;12.53;91.93
59055;BME280;44845;51.444;7.460;2023-08-31T03:34:23;99017.56;;;12.46;92.50
59055;BME280;44845;51.444;7.460;2023-08-31T03:36:48;99015.84;;;12.45;92.15
59055;BME280;44845;51.444;7.460;2023-08-31T03:39:15;99014.97;;;12.44;92.05
59055;BME280;44845;51.444;7.460;2023-08-31T03:41:41;99015.06;;;12.41;91.71
59055;BME280;44845;51.444;7.460;2023-08-31T03:44:06;99023.72;;;12.45;91.34
59055;BME280;44845;51.444;7.460;2023-08-31T03:46:31;99016.06;;;12.37;92.41
59055;BME280;44845;51.444;7.460;2023-08-31T03:48:57;99017.91;;;12.33;92.37
59055;BME280;44845;51.444;7.460;2023-08-31T03:51:22;99016.91;;;12.37;92.02
59055;BME280;44845;51.444;7.460;2023-08-31T03:53:47;99014.22;;;12.39;92.86
59055;BME280;44845;51.444;7.460;2023-08-31T03:56:13;99023.84;;;12.40;91.94
59055;BME280;44845;51.444;7.460;2023-08-31T03:58:38;99014.22;;;12.39;92.16
59055;BME280;44845;51.444;7.460;2023-08-31T04:01:03;99016.06;;;12.37;92.61
59055;BME280;44845;51.444;7.460;2023-08-31T04:03:30;99014.22;;;12.41;92.45
59055;BME280;44845;51.444;7.460;2023-08-31T04:05:56;99019.63;;;12.34;92.56
59055;BME280;44845;51.444;7.460;2023-08-31T04:08:22;99029.13;;;12.40;92.32
59055;BME280;44845;51.444;7.460;2023-08-31T04:10:47;99034.59;;;12.32;92.74
59055;BME280;44845;51.444;7.460;2023-08-31T04:13:12;99044.91;;;12.40;93.02
59055;BME280;44845;51.444;7.460;2023-08-31T04:15:38;99043.94;;;12.43;93.18
59055;BME280;44845;51.444;7.460;2023-08-31T04:18:03;99043.03;;;12.44;93.18
59055;BME280;44845;51.444;7.460;2023-08-31T04:20:29;99046.34;;;12.50;92.39
59055;BME280;44845;51.444;7.460;2023-08-31T04:22:54;99049.81;;;12.53;92.66
59055;BME280;44845;51.444;7.460;2023-08-31T04:25:19;99047.19;;;12.51;93.24
59055;BME280;44845;51.444;7.460;2023-08-31T04:27:45;99052.47;;;12.51;92.82
59055;BME280;44845;51.444;7.460;2023-08-31T04:30:11;99043.00;;;12.45;92.49
59055;BME280;44845;51.444;7.460;2023-08-31T04:32:37;99045.44;;;12.52;92.57
59055;BME280;44845;51.444;7.460;2023-08-31T04:35:03;99049.88;;;12.49;92.63
59055;BME280;44845;51.444;7.460;2023-08-31T04:37:31;99049.81;;;12.53;92.94
59055;BME280;44845;51.444;7.460;2023-08-31T04:39:57;99049.81;;;12.51;92.99
59055;BME280;44845;51.444;7.460;2023-08-31T04:42:23;99055.94;;;12.53;92.73
59055;BME280;44845;51.444;7.460;2023-08-31T04:44:49;99045.50;;;12.50;92.51
59055;BME280;44845;51.444;7.460;2023-08-31T04:47:14;99049.88;;;12.49;92.24
59055;BME280;44845;51.444;7.460;2023-08-31T04:49:40;99052.47;;;12.51;92.22
59055;BME280;44845;51.444;7.460;2023-08-31T04:52:05;99043.28;;;12.34;92.78
59055;BME280;44845;51.444;7.460;2023-08-31T04:54:31;99043.88;;;12.44;92.89
59055;BME280;44845;51.444;7.460;2023-08-31T04:56:56;99045.66;;;12.44;92.32
59055;BME280;44845;51.444;7.460;2023-08-31T04:59:21;99051.78;;;12.44;92.20
59055;BME280;44845;51.444;7.460;2023-08-31T05:01:47;99049.00;;;12.49;92.32
59055;BME280;44845;51.444;7.460;2023-08-31T05:04:12;99059.66;;;12.44;92.71
59055;BME280;44845;51.444;7.460;2023-08-31T05:06:37;99063.38;;;12.37;92.94
59055;BME280;44845;51.444;7.460;2023-08-31T05:09:03;99066.88;;;12.37;92.18
59055;BME280;44845;51.444;7.460;2023-08-31T05:11:29;99063.22;;;12.43;92.57
59055;BME280;44845;51.444;7.460;2023-08-31T05:13:55;99064.97;;;12.43;92.27
59055;BME280;44845;51.444;7.460;2023-08-31T05:16:20;99071.09;;;12.43;92.59
59055;BME280;44845;51.444;7.460;2023-08-31T05:18:45;99075.56;;;12.41;92.55
59055;BME280;44845;51.444;7.460;2023-08-31T05:21:11;99084.53;;;12.32;92.97
59055;BME280;44845;51.444;7.460;2023-08-31T05:23:36;99084.38;;;12.38;92.76
59055;BME280;44845;51.444;7.460;2023-08-31T05:26:02;99085.34;;;12.36;92.88
59055;BME280;44845;51.444;7.460;2023-08-31T05:28:28;99101.19;;;12.33;93.01
59055;BME280;44845;51.444;7.460;2023-08-31T05:30:55;99091.34;;;12.39;92.81
59055;BME280;44845;51.444;7.460;2023-08-31T05:33:22;99097.28;;;12.46;92.96
59055;BME280;44845;51.444;7.460;2023-08-31T05:35:48;99099.09;;;12.44;92.86
59055;BME280;44845;51.444;7.460;2023-08-31T05:38:13;99100.84;;;12.45;92.52
59055;BME280;44845;51.444;7.460;2023-08-31T05:40:39;99106.78;;;12.52;92.71
59055;BME280;44845;51.444;7.460;2023-08-31T05:43:04;99107.69;;;12.51;92.72
59055;BME280;44845;51.444;7.460;2023-08-31T05:45:33;99112.91;;;12.53;92.50
59055;BME280;44845;51.444;7.460;2023-08-31T05:47:59;99114.72;;;12.50;92.84
59055;BME280;44845;51.444;7.460;2023-08-31T05:50:25;99116.56;;;12.48;92.66
59055;BME280;44845;51.444;7.460;2023-08-31T05:52:51;99113.88;;;12.50;93.20
59055;BME280;44845;51.444;7.460;2023-08-31T05:55:16;99113.06;;;12.46;92.79
59055;BME280;44845;51.444;7.460;2023-08-31T05:57:41;99124.34;;;12.52;93.67
59055;BME280;44845;51.444;7.460;2023-08-31T06:00:07;99128.69;;;12.53;93.38
59055;BME280;44845;51.444;7.460;2023-08-31T06:02:34;99125.06;;;12.57;93.41
59055;BME280;44845;51.444;7.460;2023-08-31T06:05:01;99135.66;;;12.54;93.31
59055;BME280;44845;51.444;7.460;2023-08-31T06:07:26;99131.16;;;12.59;93.58
59055;BME280;44845;51.444;7.460;2023-08-31T06:09:54;99136.31;;;12.62;94.20
59055;BME280;44845;51.444;7.460;2023-08-31T06:12:19;99138.97;;;12.62;93.66
59055;BME280;44845;51.444;7.460;2023-08-31T06:14:45;99131.63;;;12.73;93.75
59055;BME280;44845;51.444;7.460;2023-08-31T06:17:10;99134.38;;;12.69;93.74
59055;BME280;44845;51.444;7.460;2023-08-31T06:19:38;99138.63;;;12.75;93.81
59055;BME280;44845;51.444;7.460;2023-08-31T06:22:04;99135.06;;;12.76;93.89
59055;BME280;44845;51.444;7.460;2023-08-31T06:24:29;99136.72;;;12.80;93.91
59055;BME280;44845;51.444;7.460;2023-08-31T06:26:55;99138.44;;;12.81;94.50
59055;BME280;44845;51.444;7.460;2023-08-31T06:29:22;99142.72;;;12.85;94.78
59055;BME280;44845;51.444;7.460;2023-08-31T06:31:47;99138.00;;;12.97;94.68
59055;BME280;44845;51.444;7.460;2023-08-31T06:34:13;99138.72;;;13.02;94.77
59055;BME280;44845;51.444;7.460;2023-08-31T06:36:38;99139.34;;;13.10;94.61
59055;BME280;44845;51.444;7.460;2023-08-31T06:39:06;99140.00;;;13.18;94.20
59055;BME280;44845;51.444;7.460;2023-08-31T06:41:31;99145.25;;;13.18;94.67
59055;BME280;44845;51.444;7.460;2023-08-31T06:43:56;99145.34;;;13.15;94.32
59055;BME280;44845;51.444;7.460;2023-08-31T06:46:22;99145.13;;;13.23;94.58
59055;BME280;44845;51.444;7.460;2023-08-31T06:48:47;99138.91;;;13.26;94.53
59055;BME280;44845;51.444;7.460;2023-08-31T06:51:14;99147.59;;;13.28;94.71
59055;BME280;44845;51.444;7.460;2023-08-31T06:53:41;99145.59;;;13.36;94.34
59055;BME280;44845;51.444;7.460;2023-08-31T06:56:06;99150.09;;;13.33;94.82
59055;BME280;44845;51.444;7.460;2023-08-31T06:58:32;99149.13;;;13.35;94.75
59055;BME280;44845;51.444;7.460;2023-08-31T07:00:57;99152.78;;;13.31;95.08
59055;BME280;44845;51.444;7.460;2023-08-31T07:03:23;99149.13;;;13.35;95.40
59055;BME280;44845;51.444;7.460;2023-08-31T07:05:49;99151.84;;;13.32;95.22
59055;BME280;44845;51.444;7.460;2023-08-31T07:08:14;99153.53;;;13.35;94.99
59055;BME280;44845;51.444;7.460;2023-08-31T07:10:39;99158.72;;;13.38;94.99
59055;BME280;44845;51.444;7.460;2023-08-31T07:13:05;99156.16;;;13.36;95.01
59055;BME280;44845;51.444;7.460;2023-08-31T07:15:30;99160.41;;;13.40;94.91
59055;BME280;44845;51.444;7.460;2023-08-31T07:17:56;99161.31;;;13.39;94.44
59055;BME280;44845;51.444;7.460;2023-08-31T07:20:21;99160.41;;;13.40;94.93
59055;BME280;44845;51.444;7.460;2023-08-31T07:22:47;99168.31;;;13.40;94.96
59055;BME280;44845;51.444;7.460;2023-08-31T07:25:12;99161.31;;;13.39;94.69
59055;BME280;44845;51.444;7.460;2023-08-31T07:27:46;99158.56;;;13.43;95.13
59055;BME280;44845;51.444;7.460;2023-08-31T07:30:12;99166.47;;;13.43;95.78
59055;BME280;44845;51.444;7.460;2023-08-31T07:32:37;99166.47;;;13.43;95.83
59055;BME280;44845;51.444;7.460;2023-08-31T07:35:03;99160.81;;;13.55;95.15
59055;BME280;44845;51.444;7.460;2023-08-31T07:37:30;99168.13;;;13.47;95.79
59055;BME280;44845;51.444;7.460;2023-08-31T07:39:55;99159.13;;;13.54;96.13
59055;BME280;44845;51.444;7.460;2023-08-31T07:42:20;99160.81;;;13.57;95.47
59055;BME280;44845;51.444;7.460;2023-08-31T07:44:46;99168.63;;;13.60;95.16
59055;BME280;44845;51.444;7.460;2023-08-31T07:47:11;99171.00;;;13.68;94.76
59055;BME280;44845;51.444;7.460;2023-08-31T07:49:36;99170.81;;;13.74;94.70
59055;BME280;44845;51.444;7.460;2023-08-31T07:52:02;99162.22;;;13.69;95.90
59055;BME280;44845;51.444;7.460;2023-08-31T07:54:28;99169.09;;;13.73;95.39
59055;BME280;44845;51.444;7.460;2023-08-31T07:56:53;99175.09;;;13.78;94.58
59055;BME280;44845;51.444;7.460;2023-08-31T07:59:22;99173.03;;;13.87;94.52
59055;BME280;44845;51.444;7.460;2023-08-31T08:01:48;99180.94;;;13.87;93.33
59055;BME280;44845;51.444;7.460;2023-08-31T08:04:13;99179.25;;;13.85;93.56
59055;BME280;44845;51.444;7.460;2023-08-31T08:06:39;99189.41;;;13.98;93.90
59055;BME280;44845;51.444;7.460;2023-08-31T08:09:04;99193.44;;;14.08;93.14
59055;BME280;44845;51.444;7.460;2023-08-31T08:11:31;99188.00;;;14.13;92.15
59055;BME280;44845;51.444;7.460;2023-08-31T08:13:56;99190.53;;;14.16;91.31
59055;BME280;44845;51.444;7.460;2023-08-31T08:16:22;99195.66;;;14.21;91.27
59055;BME280;44845;51.444;7.460;2023-08-31T08:19:30;99202.75;;;14.19;90.96
59055;BME280;44845;51.444;7.460;2023-08-31T08:22:27;99197.47;;;14.21;90.41
59055;BME280;44845;51.444;7.460;2023-08-31T08:24:56;99201.66;;;14.26;91.10
59055;BME280;44845;51.444;7.460;2023-08-31T08:27:30;99199.09;;;14.23;91.99
59055;BME280;44845;51.444;7.460;2023-08-31T08:30:08;99200.75;;;14.27;90.79
59055;BME280;44845;51.444;7.460;2023-08-31T08:32:46;99202.50;;;14.27;90.79
59055;BME280;44845;51.444;7.460;2023-08-31T08:35:14;99207.94;;;14.22;90.96
59055;BME280;44845;51.444;7.460;2023-08-31T08:37:48;99204.28;;;14.26;91.04
59055;BME280;44845;51.444;7.460;2023-08-31T08:40:30;99202.44;;;14.28;89.92
59055;BME280;44845;51.444;7.460;2023-08-31T08:43:01;99210.66;;;14.21;90.18
59055;BME280;44845;51.444;7.460;2023-08-31T08:45:36;99208.03;;;14.19;87.23
59055;BME280;44845;51.444;7.460;2023-08-31T08:48:12;99211.16;;;14.30;90.06
59055;BME280;44845;51.444;7.460;2023-08-31T08:50:38;99210.22;;;14.33;89.84
59055;BME280;44845;51.444;7.460;2023-08-31T08:53:05;99214.50;;;14.36;90.32
59055;BME280;44845;51.444;7.460;2023-08-31T08:55:32;99216.16;;;14.40;90.39
59055;BME280;44845;51.444;7.460;2023-08-31T08:57:58;99216.16;;;14.40;90.37
59055;BME280;44845;51.444;7.460;2023-08-31T09:00:26;99213.41;;;14.43;90.70
59055;BME280;44845;51.444;7.460;2023-08-31T09:02:52;99214.31;;;14.42;91.43
59055;BME280;44845;51.444;7.460;2023-08-31T09:05:18;99214.97;;;14.49;91.25
59055;BME280;44845;51.444;7.460;2023-08-31T09:08:06;99217.13;;;14.37;90.32
59055;BME280;44845;51.444;7.460;2023-08-31T09:10:42;99212.59;;;14.41;89.06
59055;BME280;44845;51.444;7.460;2023-08-31T09:13:14;99211.69;;;14.42;88.35
59055;BME280;44845;51.444;7.460;2023-08-31T09:15:47;99219.38;;;14.48;89.91
59055;BME280;44845;51.444;7.460;2023-08-31T09:18:23;99225.03;;;14.63;89.87
59055;BME280;44845;51.444;7.460;2023-08-31T09:20:49;99210.13;;;14.62;89.96
59055;BME280;44845;51.444;7.460;2023-08-31T09:23:15;99214.16;;;14.72;89.73
59055;BME280;44845;51.444;7.460;2023-08-31T09:25:51;99212.38;;;14.73;90.38
59055;BME280;44845;51.444;7.460;2023-08-31T09:28:27;99218.75;;;14.93;88.60
59055;BME280;44845;51.444;7.460;2023-08-31T09:31:05;99222.16;;;14.96;89.20
59055;BME280;44845;51.444;7.460;2023-08-31T09:33:31;99218.31;;;15.05;87.63
59055;BME280;44845;51.444;7.460;2023-08-31T09:35:59;99216.25;;;15.14;88.32
59055;BME280;44845;51.444;7.460;2023-08-31T09:38:25;99218.78;;;15.17;88.32
59055;BME280;44845;51.444;7.460;2023-08-31T09:40:50;99225.72;;;15.19;88.97
59055;BME280;44845;51.444;7.460;2023-08-31T09:43:20;99226.59;;;15.20;88.15
59055;BME280;44845;51.444;7.460;2023-08-31T09:45:50;99225.09;;;15.13;85.76
59055;BME280;44845;51.444;7.460;2023-08-31T09:48:18;99228.38;;;15.19;85.76
59055;BME280;44845;51.444;7.460;2023-08-31T09:50:44;99230.81;;;15.24;86.87
59055;BME280;44845;51.444;7.460;2023-08-31T09:53:16;99229.16;;;15.22;86.31
59055;BME280;44845;51.444;7.460;2023-08-31T09:55:43;99231.28;;;15.12;84.75
59055;BME280;44845;51.444;7.460;2023-08-31T09:58:08;99224.06;;;15.17;84.98
59055;BME280;44845;51.444;7.460;2023-08-31T10:00:36;99221.94;;;15.27;85.62
59055;BME280;44845;51.444;7.460;2023-08-31T10:03:05;99224.47;;;15.30;85.46
59055;BME280;44845;51.444;7.460;2023-08-31T10:05:31;99227.91;;;15.32;85.33
59055;BME280;44845;51.444;7.460;2023-08-31T10:07:58;99234.13;;;15.31;83.37
59055;BME280;44845;51.444;7.460;2023-08-31T10:10:25;99235.94;;;15.29;84.86
59055;BME280;44845;51.444;7.460;2023-08-31T10:12:51;99234.50;;;15.44;87.46
59055;BME280;44845;51.444;7.460;2023-08-31T10:15:18;99242.03;;;15.55;84.02
59055;BME280;44845;51.444;7.460;2023-08-31T10:17:45;99235.41;;;15.67;81.62
59055;BME280;44845;51.444;7.460;2023-08-31T10:20:12;99241.19;;;15.77;79.52
59055;BME280;44845;51.444;7.460;2023-08-31T10:22:39;99235.66;;;15.83;78.25
59055;BME280;44845;51.444;7.460;2023-08-31T10:25:05;99234.69;;;16.31;72.59
59055;BME280;44845;51.444;7.460;2023-08-31T10:27:42;99239.75;;;16.15;77.00
59055;BME280;44845;51.444;7.460;2023-08-31T10:32:39;99233.19;;;16.01;79.28
59055;BME280;44845;51.444;7.460;2023-08-31T10:35:07;99230.13;;;15.90;79.62
59055;BME280;44845;51.444;7.460;2023-08-31T10:37:32;99228.66;;;15.82;81.27
59055;BME280;44845;51.444;7.460;2023-08-31T10:40:08;99231.66;;;15.73;81.60
59055;BME280;44845;51.444;7.460;2023-08-31T10:42:46;99226.72;;;15.63;81.19
59055;BME280;44845;51.444;7.460;2023-08-31T10:45:19;99227.66;;;15.62;80.46
59055;BME280;44845;51.444;7.460;2023-08-31T10:47:46;99229.44;;;15.62;81.93
59055;BME280;44845;51.444;7.460;2023-08-31T10:50:22;99226.19;;;15.55;81.30
59055;BME280;44845;51.444;7.460;2023-08-31T10:52:48;99219.03;;;15.57;81.40
59055;BME280;44845;51.444;7.460;2023-08-31T10:55:13;99217.19;;;15.59;80.56
59055;BME280;44845;51.444;7.460;2023-08-31T10:57:40;99224.22;;;15.60;80.31
59055;BME280;44845;51.444;7.460;2023-08-31T11:00:06;99216.34;;;15.59;79.92
59055;BME280;44845;51.444;7.460;2023-08-31T11:02:41;99220.72;;;15.60;80.01
59055;BME280;44845;51.444;7.460;2023-08-31T11:05:14;99212.28;;;15.50;80.17
59055;BME280;44845;51.444;7.460;2023-08-31T11:07:43;99219.03;;;15.57;80.83
59055;BME280;44845;51.444;7.460;2023-08-31T11:12:45;99214.19;;;15.69;79.71
59055;BME280;44845;51.444;7.460;2023-08-31T11:15:12;99223.78;;;15.71;78.56
59055;BME280;44845;51.444;7.460;2023-08-31T11:17:39;99226.31;;;15.74;80.23
59055;BME280;44845;51.444;7.460;2023-08-31T11:20:05;99227.22;;;15.73;79.98
59055;BME280;44845;51.444;7.460;2023-08-31T11:22:31;99217.41;;;15.77;77.33
59055;BME280;44845;51.444;7.460;2023-08-31T11:24:58;99211.44;;;15.72;77.44
59055;BME280;44845;51.444;7.460;2023-08-31T11:27:25;99216.41;;;15.80;77.48
59055;BME280;44845;51.444;7.460;2023-08-31T11:29:50;99207.56;;;15.81;76.83
59055;BME280;44845;51.444;7.460;2023-08-31T11:32:16;99219.78;;;15.83;76.94
59055;BME280;44845;51.444;7.460;2023-08-31T11:34:43;99210.19;;;15.81;76.81
59055;BME280;44845;51.444;7.460;2023-08-31T11:37:09;99217.34;;;15.79;76.83
59055;BME280;44845;51.444;7.460;2023-08-31T11:39:37;99212.91;;;15.79;76.93
59055;BME280;44845;51.444;7.460;2023-08-31T11:42:02;99213.81;;;15.78;76.77
59055;BME280;44845;51.444;7.460;2023-08-31T11:44:28;99205.66;;;15.84;78.07
59055;BME280;44845;51.444;7.460;2023-08-31T11:46:53;99208.84;;;15.93;79.60
59055;BME280;44845;51.444;7.460;2023-08-31T11:49:19;99213.81;;;16.01;79.05
59055;BME280;44845;51.444;7.460;2023-08-31T11:51:45;99206.66;;;16.04;78.46
59055;BME280;44845;51.444;7.460;2023-08-31T11:54:11;99208.25;;;16.08;76.24
59055;BME280;44845;51.444;7.460;2023-08-31T11:56:44;99206.41;;;16.10;78.19
59055;BME280;44845;51.444;7.460;2023-08-31T11:59:12;99209.84;;;16.13;79.08
59055;BME280;44845;51.444;7.460;2023-08-31T12:01:39;99212.69;;;16.08;79.14
59055;BME280;44845;51.444;7.460;2023-08-31T12:04:43;99212.75;;;16.06;79.94
59055;BME280;44845;51.444;7.460;2023-08-31T12:07:09;99206.56;;;16.07;80.16
59055;BME280;44845;51.444;7.460;2023-08-31T12:09:35;99219.06;;;16.02;79.57
59055;BME280;44845;51.444;7.460;2023-08-31T12:12:01;99219.06;;;16.66;81.25
59055;BME280;44845;51.444;7.460;2023-08-31T12:14:27;99202.06;;;16.72;76.93
59055;BME280;44845;51.444;7.460;2023-08-31T12:17:01;99214.19;;;16.57;74.94
59055;BME280;44845;51.444;7.460;2023-08-31T12:19:28;99216.78;;;16.59;77.92
59055;BME280;44845;51.444;7.460;2023-08-31T12:21:55;99209.03;;;16.54;77.23
59055;BME280;44845;51.444;7.460;2023-08-31T12:24:21;99210.03;;;16.51;79.37
59055;BME280;44845;51.444;7.460;2023-08-31T12:26:47;99211.25;;;16.42;79.09
59055;BME280;44845;51.444;7.460;2023-08-31T12:29:13;99212.53;;;16.34;80.50
59055;BME280;44845;51.444;7.460;2023-08-31T12:31:38;99210.94;;;16.29;79.57
59055;BME280;44845;51.444;7.460;2023-08-31T12:34:04;99210.31;;;16.23;81.39
59055;BME280;44845;51.444;7.460;2023-08-31T12:36:32;99216.75;;;16.17;80.00
59055;BME280;44845;51.444;7.460;2023-08-31T12:38:57;99212.97;;;16.23;79.66
59055;BME280;44845;51.444;7.460;2023-08-31T12:41:26;99220.19;;;16.19;81.20
59055;BME280;44845;51.444;7.460;2023-08-31T12:43:52;99212.25;;;16.19;80.85
59055;BME280;44845;51.444;7.460;2023-08-31T12:46:17;99223.50;;;16.02;79.97
59055;BME280;44845;51.444;7.460;2023-08-31T12:48:42;99225.84;;;16.09;77.61
59055;BME280;44845;51.444;7.460;2023-08-31T12:51:08;99225.47;;;16.19;77.87
59055;BME280;44845;51.444;7.460;2023-08-31T12:53:37;99233.94;;;16.27;78.46
59055;BME280;44845;51.444;7.460;2023-08-31T12:56:03;99230.38;;;16.28;77.80
59055;BME280;44845;51.444;7.460;2023-08-31T12:58:29;99223.75;;;16.18;78.04
59055;BME280;44845;51.444;7.460;2023-08-31T13:00:58;99222.03;;;16.17;79.04
59055;BME280;44845;51.444;7.460;2023-08-31T13:03:23;99232.06;;;16.08;79.49
59055;BME280;44845;51.444;7.460;2023-08-31T13:05:48;99228.50;;;16.09;77.79
59055;BME280;44845;51.444;7.460;2023-08-31T13:08:15;99230.28;;;16.09;76.71
59055;BME280;44845;51.444;7.460;2023-08-31T13:10:41;99240.22;;;16.02;78.31
59055;BME280;44845;51.444;7.460;2023-08-31T13:13:06;99240.09;;;16.05;78.88